sensor_id;sensor_type;location;lat;lon;timestamp;temperature;humidity
5466;DHT22;2755;50.728;7.108;2022-09-03T00:00:07;16.70;72.50
5466;DHT22;2755;50.728;7.108;2022-09-03T00:05:23;17.10;73.00
5466;DHT22;2755;50.728;7.108;2022-09-03T00:13:54;17.00;73.40
5466;DHT22;2755;50.728;7.108;2022-09-03T00:16:23;16.90;69.00
5466;DHT22;2755;50.728;7.108;2022-09-03T00:18:57;16.80;68.80
5466;DHT22;2755;50.728;7.108;2022-09-03T00:23:54;16.60;71.20
5466;DHT22;2755;50.728;7.108;2022-09-03T00:26:27;16.70;71.80
5466;DHT22;2755;50.728;7.108;2022-09-03T00:29:05;16.70;72.30
5466;DHT22;2755;50.728;7.108;2022-09-03T00:31:42;16.40;72.50
5466;DHT22;2755;50.728;7.108;2022-09-03T00:34:31;16.60;73.00
5466;DHT22;2755;50.728;7.108;2022-09-03T00:36:58;16.20;73.90
5466;DHT22;2755;50.728;7.108;2022-09-03T00:39:26;17.00;78.50
5466;DHT22;2755;50.728;7.108;2022-09-03T00:53:02;16.40;74.10
5466;DHT22;2755;50.728;7.108;2022-09-03T00:55:48;16.50;77.40
5466;DHT22;2755;50.728;7.108;2022-09-03T01:00:51;16.30;76.20
5466;DHT22;2755;50.728;7.108;2022-09-03T01:30:44;16.00;78.80
5466;DHT22;2755;50.728;7.108;2022-09-03T01:38:58;16.20;76.00
5466;DHT22;2755;50.728;7.108;2022-09-03T01:47:21;16.20;72.60
5466;DHT22;2755;50.728;7.108;2022-09-03T01:52:53;16.20;72.10
5466;DHT22;2755;50.728;7.108;2022-09-03T01:55:31;16.20;71.70
5466;DHT22;2755;50.728;7.108;2022-09-03T01:58:15;16.30;73.60
5466;DHT22;2755;50.728;7.108;2022-09-03T02:00:43;16.40;73.90
5466;DHT22;2755;50.728;7.108;2022-09-03T02:03:13;16.60;77.30
5466;DHT22;2755;50.728;7.108;2022-09-03T02:05:39;16.30;77.90
5466;DHT22;2755;50.728;7.108;2022-09-03T02:08:09;16.30;76.40
5466;DHT22;2755;50.728;7.108;2022-09-03T02:13:14;16.20;79.90
5466;DHT22;2755;50.728;7.108;2022-09-03T02:15:43;16.10;76.10
5466;DHT22;2755;50.728;7.108;2022-09-03T02:18:15;16.00;77.70
5466;DHT22;2755;50.728;7.108;2022-09-03T02:20:42;15.90;81.70
5466;DHT22;2755;50.728;7.108;2022-09-03T02:23:08;16.00;78.90
5466;DHT22;2755;50.728;7.108;2022-09-03T02:25:40;15.80;82.00
5466;DHT22;2755;50.728;7.108;2022-09-03T02:28:07;16.10;79.40
5466;DHT22;2755;50.728;7.108;2022-09-03T02:30:33;16.00;80.40
5466;DHT22;2755;50.728;7.108;2022-09-03T02:32:59;15.20;80.00
5466;DHT22;2755;50.728;7.108;2022-09-03T02:35:25;16.00;84.00
5466;DHT22;2755;50.728;7.108;2022-09-03T02:37:51;16.00;80.80
5466;DHT22;2755;50.728;7.108;2022-09-03T02:40:16;15.80;81.20
5466;DHT22;2755;50.728;7.108;2022-09-03T02:42:43;16.10;84.40
5466;DHT22;2755;50.728;7.108;2022-09-03T02:45:25;15.70;80.80
5466;DHT22;2755;50.728;7.108;2022-09-03T02:47:55;15.80;85.70
5466;DHT22;2755;50.728;7.108;2022-09-03T02:50:22;14.90;82.60
5466;DHT22;2755;50.728;7.108;2022-09-03T02:52:48;14.70;87.10
5466;DHT22;2755;50.728;7.108;2022-09-03T02:55:15;15.60;86.10
5466;DHT22;2755;50.728;7.108;2022-09-03T02:57:40;15.50;86.70
5466;DHT22;2755;50.728;7.108;2022-09-03T03:00:07;15.70;87.00
5466;DHT22;2755;50.728;7.108;2022-09-03T03:02:33;15.50;87.60
5466;DHT22;2755;50.728;7.108;2022-09-03T03:04:59;15.70;88.20
5466;DHT22;2755;50.728;7.108;2022-09-03T03:07:24;15.40;89.20
5466;DHT22;2755;50.728;7.108;2022-09-03T03:09:51;15.30;90.30
5466;DHT22;2755;50.728;7.108;2022-09-03T03:12:16;15.10;88.50
5466;DHT22;2755;50.728;7.108;2022-09-03T03:14:42;15.70;90.00
5466;DHT22;2755;50.728;7.108;2022-09-03T03:17:08;15.40;90.20
5466;DHT22;2755;50.728;7.108;2022-09-03T03:19:34;15.20;90.40
5466;DHT22;2755;50.728;7.108;2022-09-03T03:21:59;15.40;90.70
5466;DHT22;2755;50.728;7.108;2022-09-03T03:24:25;15.10;90.70
5466;DHT22;2755;50.728;7.108;2022-09-03T03:26:53;15.30;91.70
5466;DHT22;2755;50.728;7.108;2022-09-03T03:29:19;15.10;90.50
5466;DHT22;2755;50.728;7.108;2022-09-03T03:31:45;14.80;91.70
5466;DHT22;2755;50.728;7.108;2022-09-03T03:36:36;14.10;91.30
5466;DHT22;2755;50.728;7.108;2022-09-03T03:39:03;15.90;90.60
5466;DHT22;2755;50.728;7.108;2022-09-03T03:41:33;15.50;90.40
5466;DHT22;2755;50.728;7.108;2022-09-03T03:44:02;15.30;89.60
5466;DHT22;2755;50.728;7.108;2022-09-03T03:46:31;15.40;90.90
5466;DHT22;2755;50.728;7.108;2022-09-03T03:48:57;15.20;91.70
5466;DHT22;2755;50.728;7.108;2022-09-03T03:51:24;15.40;90.90
5466;DHT22;2755;50.728;7.108;2022-09-03T03:53:53;16.30;91.90
5466;DHT22;2755;50.728;7.108;2022-09-03T03:56:19;15.60;91.60
5466;DHT22;2755;50.728;7.108;2022-09-03T03:58:44;14.90;91.60
5466;DHT22;2755;50.728;7.108;2022-09-03T04:01:13;15.50;92.10
5466;DHT22;2755;50.728;7.108;2022-09-03T04:03:39;16.00;92.30
5466;DHT22;2755;50.728;7.108;2022-09-03T04:06:05;16.90;92.90
5466;DHT22;2755;50.728;7.108;2022-09-03T04:08:36;15.30;93.60
5466;DHT22;2755;50.728;7.108;2022-09-03T04:11:05;15.50;93.30
5466;DHT22;2755;50.728;7.108;2022-09-03T04:13:32;16.10;92.20
5466;DHT22;2755;50.728;7.108;2022-09-03T04:16:04;15.50;93.30
5466;DHT22;2755;50.728;7.108;2022-09-03T04:18:31;15.90;92.80
5466;DHT22;2755;50.728;7.108;2022-09-03T04:20:59;16.00;92.60
5466;DHT22;2755;50.728;7.108;2022-09-03T04:23:32;16.10;92.10
5466;DHT22;2755;50.728;7.108;2022-09-03T04:25:58;15.80;91.60
5466;DHT22;2755;50.728;7.108;2022-09-03T04:28:24;15.80;90.60
5466;DHT22;2755;50.728;7.108;2022-09-03T04:30:49;16.00;92.10
5466;DHT22;2755;50.728;7.108;2022-09-03T04:35:42;15.60;90.60
5466;DHT22;2755;50.728;7.108;2022-09-03T04:38:08;16.00;90.70
5466;DHT22;2755;50.728;7.108;2022-09-03T04:40:34;16.00;90.90
5466;DHT22;2755;50.728;7.108;2022-09-03T04:42:59;16.40;92.30
5466;DHT22;2755;50.728;7.108;2022-09-03T04:45:26;16.30;91.20
5466;DHT22;2755;50.728;7.108;2022-09-03T04:48:03;16.30;91.30
5466;DHT22;2755;50.728;7.108;2022-09-03T04:50:30;17.10;92.60
5466;DHT22;2755;50.728;7.108;2022-09-03T04:53:01;16.30;91.50
5466;DHT22;2755;50.728;7.108;2022-09-03T04:55:28;16.00;91.80
5466;DHT22;2755;50.728;7.108;2022-09-03T04:57:58;15.50;91.00
5466;DHT22;2755;50.728;7.108;2022-09-03T05:00:23;16.30;92.10
5466;DHT22;2755;50.728;7.108;2022-09-03T05:02:49;16.90;91.80
5466;DHT22;2755;50.728;7.108;2022-09-03T05:05:16;16.40;92.80
5466;DHT22;2755;50.728;7.108;2022-09-03T05:07:42;16.20;91.20
5466;DHT22;2755;50.728;7.108;2022-09-03T05:10:10;16.20;91.10
5466;DHT22;2755;50.728;7.108;2022-09-03T05:12:46;16.80;90.60
5466;DHT22;2755;50.728;7.108;2022-09-03T05:15:14;16.40;90.60
5466;DHT22;2755;50.728;7.108;2022-09-03T05:20:06;16.40;90.50
5466;DHT22;2755;50.728;7.108;2022-09-03T05:22:33;16.00;90.30
5466;DHT22;2755;50.728;7.108;2022-09-03T05:24:59;16.50;90.60
5466;DHT22;2755;50.728;7.108;2022-09-03T05:27:25;17.20;90.10
5466;DHT22;2755;50.728;7.108;2022-09-03T05:29:50;16.50;87.40
5466;DHT22;2755;50.728;7.108;2022-09-03T05:32:16;16.90;89.00
5466;DHT22;2755;50.728;7.108;2022-09-03T05:34:45;16.80;88.90
5466;DHT22;2755;50.728;7.108;2022-09-03T05:37:10;16.90;90.90
5466;DHT22;2755;50.728;7.108;2022-09-03T05:39:37;17.20;90.00
5466;DHT22;2755;50.728;7.108;2022-09-03T05:42:03;15.80;89.70
5466;DHT22;2755;50.728;7.108;2022-09-03T05:44:28;17.10;90.40
5466;DHT22;2755;50.728;7.108;2022-09-03T05:46:55;17.10;91.60
5466;DHT22;2755;50.728;7.108;2022-09-03T05:49:21;17.50;91.10
5466;DHT22;2755;50.728;7.108;2022-09-03T05:51:47;17.20;90.10
5466;DHT22;2755;50.728;7.108;2022-09-03T05:54:12;16.60;89.90
5466;DHT22;2755;50.728;7.108;2022-09-03T05:56:39;17.30;91.00
5466;DHT22;2755;50.728;7.108;2022-09-03T05:59:06;17.30;90.00
5466;DHT22;2755;50.728;7.108;2022-09-03T06:01:41;17.20;87.90
5466;DHT22;2755;50.728;7.108;2022-09-03T06:04:12;17.30;90.80
5466;DHT22;2755;50.728;7.108;2022-09-03T06:06:40;17.50;89.10
5466;DHT22;2755;50.728;7.108;2022-09-03T06:09:08;17.50;87.40
5466;DHT22;2755;50.728;7.108;2022-09-03T06:11:36;17.50;87.90
5466;DHT22;2755;50.728;7.108;2022-09-03T06:14:06;17.90;89.10
5466;DHT22;2755;50.728;7.108;2022-09-03T06:16:35;18.10;85.40
5466;DHT22;2755;50.728;7.108;2022-09-03T06:19:02;18.40;85.80
5466;DHT22;2755;50.728;7.108;2022-09-03T06:21:27;17.70;84.50
5466;DHT22;2755;50.728;7.108;2022-09-03T06:23:55;19.50;83.50
5466;DHT22;2755;50.728;7.108;2022-09-03T06:26:22;19.90;80.20
5466;DHT22;2755;50.728;7.108;2022-09-03T06:28:47;20.10;76.50
5466;DHT22;2755;50.728;7.108;2022-09-03T06:31:15;20.30;76.90
5466;DHT22;2755;50.728;7.108;2022-09-03T06:33:42;21.00;73.80
5466;DHT22;2755;50.728;7.108;2022-09-03T06:36:10;21.40;73.40
5466;DHT22;2755;50.728;7.108;2022-09-03T06:38:38;22.20;72.50
5466;DHT22;2755;50.728;7.108;2022-09-03T06:41:24;22.10;72.90
5466;DHT22;2755;50.728;7.108;2022-09-03T06:43:53;22.60;68.80
5466;DHT22;2755;50.728;7.108;2022-09-03T06:46:22;22.30;71.90
5466;DHT22;2755;50.728;7.108;2022-09-03T06:48:48;22.10;63.00
5466;DHT22;2755;50.728;7.108;2022-09-03T06:51:25;21.80;64.00
5466;DHT22;2755;50.728;7.108;2022-09-03T06:53:53;21.70;67.30
5466;DHT22;2755;50.728;7.108;2022-09-03T06:56:21;19.80;65.70
5466;DHT22;2755;50.728;7.108;2022-09-03T06:58:52;20.90;67.30
5466;DHT22;2755;50.728;7.108;2022-09-03T07:01:20;20.90;67.60
5466;DHT22;2755;50.728;7.108;2022-09-03T07:03:51;19.80;66.10
5466;DHT22;2755;50.728;7.108;2022-09-03T07:06:18;20.10;66.70
5466;DHT22;2755;50.728;7.108;2022-09-03T07:08:45;20.00;69.10
5466;DHT22;2755;50.728;7.108;2022-09-03T07:11:16;19.70;68.80
5466;DHT22;2755;50.728;7.108;2022-09-03T07:13:45;19.60;69.90
5466;DHT22;2755;50.728;7.108;2022-09-03T07:16:17;18.50;69.40
5466;DHT22;2755;50.728;7.108;2022-09-03T07:18:44;19.50;75.20
5466;DHT22;2755;50.728;7.108;2022-09-03T07:21:12;18.50;74.50
5466;DHT22;2755;50.728;7.108;2022-09-03T07:23:38;19.10;72.70
5466;DHT22;2755;50.728;7.108;2022-09-03T07:26:06;18.60;75.80
5466;DHT22;2755;50.728;7.108;2022-09-03T07:28:38;18.40;78.70
5466;DHT22;2755;50.728;7.108;2022-09-03T07:31:06;18.50;81.40
5466;DHT22;2755;50.728;7.108;2022-09-03T07:33:32;18.10;79.80
5466;DHT22;2755;50.728;7.108;2022-09-03T07:36:06;18.00;88.00
5466;DHT22;2755;50.728;7.108;2022-09-03T07:38:33;17.60;91.90
5466;DHT22;2755;50.728;7.108;2022-09-03T07:41:01;16.70;96.50
5466;DHT22;2755;50.728;7.108;2022-09-03T07:43:28;16.80;98.90
5466;DHT22;2755;50.728;7.108;2022-09-03T07:45:54;16.10;99.90
5466;DHT22;2755;50.728;7.108;2022-09-03T07:48:21;14.90;99.90
5466;DHT22;2755;50.728;7.108;2022-09-03T07:50:47;15.40;99.90
5466;DHT22;2755;50.728;7.108;2022-09-03T07:53:15;15.30;99.90
5466;DHT22;2755;50.728;7.108;2022-09-03T07:55:42;15.30;99.90
5466;DHT22;2755;50.728;7.108;2022-09-03T07:58:08;15.10;99.90
5466;DHT22;2755;50.728;7.108;2022-09-03T08:00:37;15.80;99.90
5466;DHT22;2755;50.728;7.108;2022-09-03T08:03:03;15.30;99.90
5466;DHT22;2755;50.728;7.108;2022-09-03T08:05:33;14.80;99.90
5466;DHT22;2755;50.728;7.108;2022-09-03T08:08:03;15.60;99.90
5466;DHT22;2755;50.728;7.108;2022-09-03T08:10:29;15.80;99.90
5466;DHT22;2755;50.728;7.108;2022-09-03T08:15:24;15.60;99.90
5466;DHT22;2755;50.728;7.108;2022-09-03T08:17:50;15.10;99.90
5466;DHT22;2755;50.728;7.108;2022-09-03T08:20:16;15.50;99.90
5466;DHT22;2755;50.728;7.108;2022-09-03T08:22:42;15.00;99.90
5466;DHT22;2755;50.728;7.108;2022-09-03T08:25:08;15.10;99.90
5466;DHT22;2755;50.728;7.108;2022-09-03T08:27:34;15.20;99.90
5466;DHT22;2755;50.728;7.108;2022-09-03T08:29:59;13.80;99.90
5466;DHT22;2755;50.728;7.108;2022-09-03T08:32:25;15.00;99.90
5466;DHT22;2755;50.728;7.108;2022-09-03T08:34:51;14.70;99.90
5466;DHT22;2755;50.728;7.108;2022-09-03T08:37:17;15.50;99.90
5466;DHT22;2755;50.728;7.108;2022-09-03T08:39:43;14.80;99.90
5466;DHT22;2755;50.728;7.108;2022-09-03T08:47:43;15.50;99.90
5466;DHT22;2755;50.728;7.108;2022-09-03T09:01:00;16.40;99.90
5466;DHT22;2755;50.728;7.108;2022-09-03T09:12:12;17.70;99.90
5466;DHT22;2755;50.728;7.108;2022-09-03T09:20:05;19.10;99.90
5466;DHT22;2755;50.728;7.108;2022-09-03T09:22:45;18.40;99.90
5466;DHT22;2755;50.728;7.108;2022-09-03T09:25:17;19.70;99.90
5466;DHT22;2755;50.728;7.108;2022-09-03T09:27:51;20.10;99.90
5466;DHT22;2755;50.728;7.108;2022-09-03T09:30:20;20.40;99.90
5466;DHT22;2755;50.728;7.108;2022-09-03T09:32:46;19.50;99.90
5466;DHT22;2755;50.728;7.108;2022-09-03T09:35:13;21.50;99.90
5466;DHT22;2755;50.728;7.108;2022-09-03T09:37:51;22.10;99.90
5466;DHT22;2755;50.728;7.108;2022-09-03T09:40:27;23.00;99.90
5466;DHT22;2755;50.728;7.108;2022-09-03T09:43:16;24.20;97.80
5466;DHT22;2755;50.728;7.108;2022-09-03T09:45:49;24.50;95.10
5466;DHT22;2755;50.728;7.108;2022-09-03T09:48:30;25.10;91.40
5466;DHT22;2755;50.728;7.108;2022-09-03T09:51:11;25.40;88.80
5466;DHT22;2755;50.728;7.108;2022-09-03T09:53:39;25.70;87.80
5466;DHT22;2755;50.728;7.108;2022-09-03T09:56:05;25.70;80.90
5466;DHT22;2755;50.728;7.108;2022-09-03T09:58:33;25.90;83.10
5466;DHT22;2755;50.728;7.108;2022-09-03T10:01:11;23.70;76.70
5466;DHT22;2755;50.728;7.108;2022-09-03T10:03:57;24.20;80.60
5466;DHT22;2755;50.728;7.108;2022-09-03T10:06:25;23.80;84.30
5466;DHT22;2755;50.728;7.108;2022-09-03T10:09:12;23.30;84.20
5466;DHT22;2755;50.728;7.108;2022-09-03T10:11:43;23.00;86.30
5466;DHT22;2755;50.728;7.108;2022-09-03T10:14:28;23.00;86.40
5466;DHT22;2755;50.728;7.108;2022-09-03T10:17:20;23.00;88.20
5466;DHT22;2755;50.728;7.108;2022-09-03T10:23:00;22.40;86.20
5466;DHT22;2755;50.728;7.108;2022-09-03T10:25:37;22.20;87.50
5466;DHT22;2755;50.728;7.108;2022-09-03T10:28:08;21.90;90.00
5466;DHT22;2755;50.728;7.108;2022-09-03T10:31:24;21.70;88.80
5466;DHT22;2755;50.728;7.108;2022-09-03T10:34:02;22.60;93.40
5466;DHT22;2755;50.728;7.108;2022-09-03T10:36:41;21.50;90.30
5466;DHT22;2755;50.728;7.108;2022-09-03T10:39:24;21.30;91.90
5466;DHT22;2755;50.728;7.108;2022-09-03T10:42:25;21.20;92.40
5466;DHT22;2755;50.728;7.108;2022-09-03T10:45:07;22.20;94.10
5466;DHT22;2755;50.728;7.108;2022-09-03T10:47:53;21.50;91.10
5466;DHT22;2755;50.728;7.108;2022-09-03T10:50:26;21.60;92.90
5466;DHT22;2755;50.728;7.108;2022-09-03T10:55:30;22.30;91.20
5466;DHT22;2755;50.728;7.108;2022-09-03T11:01:27;22.30;92.50
5466;DHT22;2755;50.728;7.108;2022-09-03T11:04:16;22.70;91.60
5466;DHT22;2755;50.728;7.108;2022-09-03T11:06:54;22.30;91.10
5466;DHT22;2755;50.728;7.108;2022-09-03T11:09:34;22.90;91.40
5466;DHT22;2755;50.728;7.108;2022-09-03T11:14:47;22.90;92.20
5466;DHT22;2755;50.728;7.108;2022-09-03T11:17:24;22.60;91.90
5466;DHT22;2755;50.728;7.108;2022-09-03T11:19:55;22.40;91.20
5466;DHT22;2755;50.728;7.108;2022-09-03T11:22:24;22.40;90.90
5466;DHT22;2755;50.728;7.108;2022-09-03T11:24:57;22.50;92.00
5466;DHT22;2755;50.728;7.108;2022-09-03T11:27:51;23.40;92.60
5466;DHT22;2755;50.728;7.108;2022-09-03T11:30:24;23.50;92.50
5466;DHT22;2755;50.728;7.108;2022-09-03T11:33:05;23.60;89.10
5466;DHT22;2755;50.728;7.108;2022-09-03T11:38:03;24.00;90.70
5466;DHT22;2755;50.728;7.108;2022-09-03T11:40:34;23.60;89.20
5466;DHT22;2755;50.728;7.108;2022-09-03T11:46:10;23.80;87.70
5466;DHT22;2755;50.728;7.108;2022-09-03T11:48:45;24.30;85.90
5466;DHT22;2755;50.728;7.108;2022-09-03T11:51:31;24.30;90.20
5466;DHT22;2755;50.728;7.108;2022-09-03T11:56:30;25.90;85.90
5466;DHT22;2755;50.728;7.108;2022-09-03T12:01:50;26.70;83.40
5466;DHT22;2755;50.728;7.108;2022-09-03T12:04:23;26.50;77.80
5466;DHT22;2755;50.728;7.108;2022-09-03T12:09:41;27.00;76.00
5466;DHT22;2755;50.728;7.108;2022-09-03T12:17:47;27.80;74.10
5466;DHT22;2755;50.728;7.108;2022-09-03T12:20:34;27.70;73.80
5466;DHT22;2755;50.728;7.108;2022-09-03T12:25:27;28.20;71.50
5466;DHT22;2755;50.728;7.108;2022-09-03T12:30:22;27.90;73.40
5466;DHT22;2755;50.728;7.108;2022-09-03T12:32:49;27.30;68.70
5466;DHT22;2755;50.728;7.108;2022-09-03T12:35:21;28.80;73.30
5466;DHT22;2755;50.728;7.108;2022-09-03T12:37:50;28.10;71.10
5466;DHT22;2755;50.728;7.108;2022-09-03T12:40:22;28.20;74.30
5466;DHT22;2755;50.728;7.108;2022-09-03T12:42:48;28.10;69.80
5466;DHT22;2755;50.728;7.108;2022-09-03T12:45:18;28.00;71.30
5466;DHT22;2755;50.728;7.108;2022-09-03T12:47:44;27.70;72.20
5466;DHT22;2755;50.728;7.108;2022-09-03T12:50:21;27.50;69.90
5466;DHT22;2755;50.728;7.108;2022-09-03T12:53:01;27.10;71.90
5466;DHT22;2755;50.728;7.108;2022-09-03T12:58:21;26.90;73.40
5466;DHT22;2755;50.728;7.108;2022-09-03T13:05:58;26.40;74.10
5466;DHT22;2755;50.728;7.108;2022-09-03T13:08:33;26.10;77.80
5466;DHT22;2755;50.728;7.108;2022-09-03T13:11:03;27.00;79.60
5466;DHT22;2755;50.728;7.108;2022-09-03T13:13:35;25.80;75.70
5466;DHT22;2755;50.728;7.108;2022-09-03T13:18:55;26.00;79.40
5466;DHT22;2755;50.728;7.108;2022-09-03T13:27:38;25.70;77.50
5466;DHT22;2755;50.728;7.108;2022-09-03T13:30:13;25.60;76.70
5466;DHT22;2755;50.728;7.108;2022-09-03T13:36:03;25.80;78.70
5466;DHT22;2755;50.728;7.108;2022-09-03T13:38:55;25.70;79.60
5466;DHT22;2755;50.728;7.108;2022-09-03T13:46:42;26.00;79.90
5466;DHT22;2755;50.728;7.108;2022-09-03T13:55:45;25.60;77.00
5466;DHT22;2755;50.728;7.108;2022-09-03T13:58:30;25.50;79.50
5466;DHT22;2755;50.728;7.108;2022-09-03T14:03:45;25.70;76.40
5466;DHT22;2755;50.728;7.108;2022-09-03T14:09:13;25.80;79.40
5466;DHT22;2755;50.728;7.108;2022-09-03T14:14:44;25.40;77.20
5466;DHT22;2755;50.728;7.108;2022-09-03T14:19:56;26.20;80.30
5466;DHT22;2755;50.728;7.108;2022-09-03T14:25:02;25.60;77.00
5466;DHT22;2755;50.728;7.108;2022-09-03T14:27:31;25.70;78.20
5466;DHT22;2755;50.728;7.108;2022-09-03T14:30:02;25.70;75.80
5466;DHT22;2755;50.728;7.108;2022-09-03T14:32:35;25.90;74.90
5466;DHT22;2755;50.728;7.108;2022-09-03T14:46:35;25.40;76.20
5466;DHT22;2755;50.728;7.108;2022-09-03T14:52:23;25.20;77.00
5466;DHT22;2755;50.728;7.108;2022-09-03T14:55:04;25.40;79.00
5466;DHT22;2755;50.728;7.108;2022-09-03T14:57:53;24.90;82.20
5466;DHT22;2755;50.728;7.108;2022-09-03T15:08:54;25.10;79.10
5466;DHT22;2755;50.728;7.108;2022-09-03T15:11:28;25.20;82.80
5466;DHT22;2755;50.728;7.108;2022-09-03T15:14:05;24.80;81.00
5466;DHT22;2755;50.728;7.108;2022-09-03T15:25:10;25.70;79.40
5466;DHT22;2755;50.728;7.108;2022-09-03T15:28:04;25.70;78.90
5466;DHT22;2755;50.728;7.108;2022-09-03T15:33:18;25.80;78.00
5466;DHT22;2755;50.728;7.108;2022-09-03T15:38:54;25.60;84.80
5466;DHT22;2755;50.728;7.108;2022-09-03T15:54:49;23.30;92.10
5466;DHT22;2755;50.728;7.108;2022-09-03T15:57:24;23.00;93.60
5466;DHT22;2755;50.728;7.108;2022-09-03T15:59:53;22.90;94.00
5466;DHT22;2755;50.728;7.108;2022-09-03T16:05:27;22.10;96.60
5466;DHT22;2755;50.728;7.108;2022-09-03T16:08:07;22.20;97.50
5466;DHT22;2755;50.728;7.108;2022-09-03T16:10:58;22.50;99.90
5466;DHT22;2755;50.728;7.108;2022-09-03T16:13:55;22.00;99.90
5466;DHT22;2755;50.728;7.108;2022-09-03T16:19:36;21.50;99.90
5466;DHT22;2755;50.728;7.108;2022-09-03T16:24:50;21.20;99.90
5466;DHT22;2755;50.728;7.108;2022-09-03T16:27:31;20.80;99.90
5466;DHT22;2755;50.728;7.108;2022-09-03T16:30:08;20.60;99.90
5466;DHT22;2755;50.728;7.108;2022-09-03T16:43:23;20.50;99.90
5466;DHT22;2755;50.728;7.108;2022-09-03T16:46:20;20.50;99.90
5466;DHT22;2755;50.728;7.108;2022-09-03T16:49:24;20.80;99.90
5466;DHT22;2755;50.728;7.108;2022-09-03T16:58:20;20.30;99.90
5466;DHT22;2755;50.728;7.108;2022-09-03T17:24:57;19.20;99.90
5466;DHT22;2755;50.728;7.108;2022-09-03T17:30:24;18.80;99.90
5466;DHT22;2755;50.728;7.108;2022-09-03T17:36:17;18.90;99.90
5466;DHT22;2755;50.728;7.108;2022-09-03T17:38:40;19.00;99.90
5466;DHT22;2755;50.728;7.108;2022-09-03T17:49:59;18.30;99.90
5466;DHT22;2755;50.728;7.108;2022-09-03T17:52:38;18.20;99.90
5466;DHT22;2755;50.728;7.108;2022-09-03T18:03:12;18.40;99.90
5466;DHT22;2755;50.728;7.108;2022-09-03T18:05:47;18.40;99.90
5466;DHT22;2755;50.728;7.108;2022-09-03T18:08:45;18.20;99.90
5466;DHT22;2755;50.728;7.108;2022-09-03T18:14:23;17.90;99.90
5466;DHT22;2755;50.728;7.108;2022-09-03T18:17:03;17.60;99.90
5466;DHT22;2755;50.728;7.108;2022-09-03T18:22:19;17.60;99.90
5466;DHT22;2755;50.728;7.108;2022-09-03T18:25:07;17.90;99.90
5466;DHT22;2755;50.728;7.108;2022-09-03T18:27:58;17.80;99.90
5466;DHT22;2755;50.728;7.108;2022-09-03T18:30:44;17.70;99.90
5466;DHT22;2755;50.728;7.108;2022-09-03T18:33:28;18.00;99.90
5466;DHT22;2755;50.728;7.108;2022-09-03T18:36:12;17.50;99.90
5466;DHT22;2755;50.728;7.108;2022-09-03T18:39:11;17.60;99.90
5466;DHT22;2755;50.728;7.108;2022-09-03T18:42:13;17.60;99.90
5466;DHT22;2755;50.728;7.108;2022-09-03T18:54:48;17.30;99.90
5466;DHT22;2755;50.728;7.108;2022-09-03T18:58:26;17.60;99.90
5466;DHT22;2755;50.728;7.108;2022-09-03T19:01:31;17.40;99.90
5466;DHT22;2755;50.728;7.108;2022-09-03T19:10:51;17.50;99.90
5466;DHT22;2755;50.728;7.108;2022-09-03T19:13:39;17.30;99.90
5466;DHT22;2755;50.728;7.108;2022-09-03T19:22:37;17.20;99.90
5466;DHT22;2755;50.728;7.108;2022-09-03T19:46:04;15.80;99.90
5466;DHT22;2755;50.728;7.108;2022-09-03T19:54:44;16.80;99.90
5466;DHT22;2755;50.728;7.108;2022-09-03T19:57:29;17.00;99.90
5466;DHT22;2755;50.728;7.108;2022-09-03T20:00:14;16.90;99.90
5466;DHT22;2755;50.728;7.108;2022-09-03T20:02:58;17.30;99.90
5466;DHT22;2755;50.728;7.108;2022-09-03T20:05:44;17.00;99.90
5466;DHT22;2755;50.728;7.108;2022-09-03T20:08:29;16.80;99.90
5466;DHT22;2755;50.728;7.108;2022-09-03T20:11:20;15.80;99.90
5466;DHT22;2755;50.728;7.108;2022-09-03T20:13:47;16.80;99.90
5466;DHT22;2755;50.728;7.108;2022-09-03T20:30:49;17.00;99.90
5466;DHT22;2755;50.728;7.108;2022-09-03T20:41:34;16.90;99.90
5466;DHT22;2755;50.728;7.108;2022-09-03T20:46:57;16.80;99.90
5466;DHT22;2755;50.728;7.108;2022-09-03T20:52:18;16.80;99.90
5466;DHT22;2755;50.728;7.108;2022-09-03T20:55:17;16.80;99.90
5466;DHT22;2755;50.728;7.108;2022-09-03T20:57:58;16.80;99.90
5466;DHT22;2755;50.728;7.108;2022-09-03T21:00:41;16.80;99.90
5466;DHT22;2755;50.728;7.108;2022-09-03T21:03:20;16.70;99.90
5466;DHT22;2755;50.728;7.108;2022-09-03T21:26:53;17.00;99.90
5466;DHT22;2755;50.728;7.108;2022-09-03T21:29:39;16.70;99.90
5466;DHT22;2755;50.728;7.108;2022-09-03T21:32:23;16.70;99.90
5466;DHT22;2755;50.728;7.108;2022-09-03T21:35:27;16.60;99.90
5466;DHT22;2755;50.728;7.108;2022-09-03T21:38:03;16.70;99.90
5466;DHT22;2755;50.728;7.108;2022-09-03T21:40:30;16.50;99.90
5466;DHT22;2755;50.728;7.108;2022-09-03T21:45:29;16.30;99.90
5466;DHT22;2755;50.728;7.108;2022-09-03T21:50:46;16.80;99.90
5466;DHT22;2755;50.728;7.108;2022-09-03T21:53:39;16.30;99.90
5466;DHT22;2755;50.728;7.108;2022-09-03T21:58:48;16.50;99.90
5466;DHT22;2755;50.728;7.108;2022-09-03T22:09:08;16.40;99.90
5466;DHT22;2755;50.728;7.108;2022-09-03T22:11:59;16.50;99.90
5466;DHT22;2755;50.728;7.108;2022-09-03T22:14:32;16.40;99.90
5466;DHT22;2755;50.728;7.108;2022-09-03T22:19:29;16.40;99.90
5466;DHT22;2755;50.728;7.108;2022-09-03T22:21:59;15.10;99.90
5466;DHT22;2755;50.728;7.108;2022-09-03T22:24:34;15.60;99.90
5466;DHT22;2755;50.728;7.108;2022-09-03T22:27:23;16.60;99.90
5466;DHT22;2755;50.728;7.108;2022-09-03T22:30:08;16.30;99.90
5466;DHT22;2755;50.728;7.108;2022-09-03T22:44:22;16.20;99.90
5466;DHT22;2755;50.728;7.108;2022-09-03T22:54:56;16.20;99.90
5466;DHT22;2755;50.728;7.108;2022-09-03T22:57:26;15.90;99.90
5466;DHT22;2755;50.728;7.108;2022-09-03T23:00:01;15.50;99.90
5466;DHT22;2755;50.728;7.108;2022-09-03T23:02:29;16.10;99.90
5466;DHT22;2755;50.728;7.108;2022-09-03T23:13:24;16.00;99.90
5466;DHT22;2755;50.728;7.108;2022-09-03T23:16:04;16.10;99.90
5466;DHT22;2755;50.728;7.108;2022-09-03T23:18:33;16.10;99.90
5466;DHT22;2755;50.728;7.108;2022-09-03T23:21:28;16.40;99.90
5466;DHT22;2755;50.728;7.108;2022-09-03T23:24:04;16.50;99.90
5466;DHT22;2755;50.728;7.108;2022-09-03T23:26:39;16.40;99.90
5466;DHT22;2755;50.728;7.108;2022-09-03T23:31:38;16.40;99.90
5466;DHT22;2755;50.728;7.108;2022-09-03T23:34:03;16.70;99.90
5466;DHT22;2755;50.728;7.108;2022-09-03T23:36:56;15.90;99.90
5466;DHT22;2755;50.728;7.108;2022-09-03T23:40:00;16.40;99.90
5466;DHT22;2755;50.728;7.108;2022-09-03T23:42:40;16.40;99.90
5466;DHT22;2755;50.728;7.108;2022-09-03T23:57:06;16.00;99.90
